sensor_id;sensor_type;location;lat;lon;timestamp;P1;durP1;ratioP1;P2;durP2;ratioP2
6987;SDS011;3534;49.960;8.018;2023-06-10T00:02:21;9.97;;;6.93;;
6987;SDS011;3534;49.960;8.018;2023-06-10T00:04:49;8.87;;;7.60;;
6987;SDS011;3534;49.960;8.018;2023-06-10T00:07:17;13.60;;;6.60;;
6987;SDS011;3534;49.960;8.018;2023-06-10T00:09:44;10.00;;;6.57;;
6987;SDS011;3534;49.960;8.018;2023-06-10T00:12:11;7.73;;;6.50;;
6987;SDS011;3534;49.960;8.018;2023-06-10T00:14:38;7.87;;;7.00;;
6987;SDS011;3534;49.960;8.018;2023-06-10T00:17:06;7.97;;;6.40;;
6987;SDS011;3534;49.960;8.018;2023-06-10T00:19:34;25.00;;;7.00;;
6987;SDS011;3534;49.960;8.018;2023-06-10T00:22:03;8.60;;;6.60;;
6987;SDS011;3534;49.960;8.018;2023-06-10T00:24:30;8.23;;;6.90;;
6987;SDS011;3534;49.960;8.018;2023-06-10T00:26:56;10.40;;;6.67;;
6987;SDS011;3534;49.960;8.018;2023-06-10T00:29:23;9.53;;;7.00;;
6987;SDS011;3534;49.960;8.018;2023-06-10T00:31:50;10.23;;;6.57;;
6987;SDS011;3534;49.960;8.018;2023-06-10T00:34:18;17.10;;;7.33;;
6987;SDS011;3534;49.960;8.018;2023-06-10T00:36:45;8.07;;;7.00;;
6987;SDS011;3534;49.960;8.018;2023-06-10T00:39:13;7.13;;;6.43;;
6987;SDS011;3534;49.960;8.018;2023-06-10T00:41:41;9.57;;;7.30;;
6987;SDS011;3534;49.960;8.018;2023-06-10T00:44:08;9.17;;;6.50;;
6987;SDS011;3534;49.960;8.018;2023-06-10T00:46:35;10.77;;;7.50;;
6987;SDS011;3534;49.960;8.018;2023-06-10T00:49:02;7.20;;;6.50;;
6987;SDS011;3534;49.960;8.018;2023-06-10T00:51:29;7.67;;;6.80;;
6987;SDS011;3534;49.960;8.018;2023-06-10T00:53:56;9.70;;;6.80;;
6987;SDS011;3534;49.960;8.018;2023-06-10T00:56:24;7.00;;;6.30;;
6987;SDS011;3534;49.960;8.018;2023-06-10T00:58:51;8.30;;;6.87;;
6987;SDS011;3534;49.960;8.018;2023-06-10T01:01:24;9.73;;;7.50;;
6987;SDS011;3534;49.960;8.018;2023-06-10T01:03:51;8.20;;;7.23;;
6987;SDS011;3534;49.960;8.018;2023-06-10T01:06:20;8.30;;;6.90;;
6987;SDS011;3534;49.960;8.018;2023-06-10T01:08:55;7.93;;;6.43;;
6987;SDS011;3534;49.960;8.018;2023-06-10T01:11:29;8.87;;;6.40;;
6987;SDS011;3534;49.960;8.018;2023-06-10T01:14:02;12.33;;;6.37;;
6987;SDS011;3534;49.960;8.018;2023-06-10T01:16:32;8.40;;;6.80;;
6987;SDS011;3534;49.960;8.018;2023-06-10T01:19:01;10.33;;;7.23;;
6987;SDS011;3534;49.960;8.018;2023-06-10T01:21:29;7.50;;;6.80;;
6987;SDS011;3534;49.960;8.018;2023-06-10T01:23:56;9.00;;;6.63;;
6987;SDS011;3534;49.960;8.018;2023-06-10T01:26:24;7.23;;;6.20;;
6987;SDS011;3534;49.960;8.018;2023-06-10T01:28:57;13.33;;;6.97;;
6987;SDS011;3534;49.960;8.018;2023-06-10T01:31:28;8.10;;;7.20;;
6987;SDS011;3534;49.960;8.018;2023-06-10T01:34:01;10.13;;;7.00;;
6987;SDS011;3534;49.960;8.018;2023-06-10T01:36:34;10.57;;;8.27;;
6987;SDS011;3534;49.960;8.018;2023-06-10T01:39:02;9.00;;;7.83;;
6987;SDS011;3534;49.960;8.018;2023-06-10T01:41:31;10.03;;;7.27;;
6987;SDS011;3534;49.960;8.018;2023-06-10T01:43:58;10.90;;;7.20;;
6987;SDS011;3534;49.960;8.018;2023-06-10T01:46:25;13.60;;;7.63;;
6987;SDS011;3534;49.960;8.018;2023-06-10T01:48:52;9.53;;;7.33;;
6987;SDS011;3534;49.960;8.018;2023-06-10T01:51:18;8.20;;;7.40;;
6987;SDS011;3534;49.960;8.018;2023-06-10T01:53:46;10.90;;;8.20;;
6987;SDS011;3534;49.960;8.018;2023-06-10T01:56:13;8.43;;;7.00;;
6987;SDS011;3534;49.960;8.018;2023-06-10T01:58:43;9.03;;;6.80;;
6987;SDS011;3534;49.960;8.018;2023-06-10T02:01:09;11.63;;;6.60;;
6987;SDS011;3534;49.960;8.018;2023-06-10T02:03:36;6.97;;;6.17;;
6987;SDS011;3534;49.960;8.018;2023-06-10T02:06:03;9.20;;;6.50;;
6987;SDS011;3534;49.960;8.018;2023-06-10T02:08:29;8.00;;;7.30;;
6987;SDS011;3534;49.960;8.018;2023-06-10T02:10:57;11.20;;;6.23;;
6987;SDS011;3534;49.960;8.018;2023-06-10T02:13:24;9.97;;;7.50;;
6987;SDS011;3534;49.960;8.018;2023-06-10T02:15:51;12.00;;;7.00;;
6987;SDS011;3534;49.960;8.018;2023-06-10T02:18:18;9.10;;;7.13;;
6987;SDS011;3534;49.960;8.018;2023-06-10T02:20:45;8.33;;;7.30;;
6987;SDS011;3534;49.960;8.018;2023-06-10T02:23:12;12.50;;;7.33;;
6987;SDS011;3534;49.960;8.018;2023-06-10T02:25:39;15.00;;;7.10;;
6987;SDS011;3534;49.960;8.018;2023-06-10T02:28:07;11.60;;;7.80;;
6987;SDS011;3534;49.960;8.018;2023-06-10T02:30:34;12.20;;;6.77;;
6987;SDS011;3534;49.960;8.018;2023-06-10T02:33:00;12.90;;;9.63;;
6987;SDS011;3534;49.960;8.018;2023-06-10T02:35:27;20.63;;;10.70;;
6987;SDS011;3534;49.960;8.018;2023-06-10T02:37:54;11.13;;;9.10;;
6987;SDS011;3534;49.960;8.018;2023-06-10T02:40:20;22.47;;;9.97;;
6987;SDS011;3534;49.960;8.018;2023-06-10T02:42:47;13.40;;;9.43;;
6987;SDS011;3534;49.960;8.018;2023-06-10T02:45:15;20.57;;;9.80;;
6987;SDS011;3534;49.960;8.018;2023-06-10T02:47:42;10.40;;;9.30;;
6987;SDS011;3534;49.960;8.018;2023-06-10T02:50:09;11.40;;;9.60;;
6987;SDS011;3534;49.960;8.018;2023-06-10T02:52:35;15.30;;;9.73;;
6987;SDS011;3534;49.960;8.018;2023-06-10T02:55:02;9.87;;;8.60;;
6987;SDS011;3534;49.960;8.018;2023-06-10T02:57:29;15.53;;;9.77;;
6987;SDS011;3534;49.960;8.018;2023-06-10T02:59:55;16.83;;;9.77;;
6987;SDS011;3534;49.960;8.018;2023-06-10T03:02:24;14.90;;;9.43;;
6987;SDS011;3534;49.960;8.018;2023-06-10T03:04:53;13.40;;;9.60;;
6987;SDS011;3534;49.960;8.018;2023-06-10T03:07:20;11.90;;;9.20;;
6987;SDS011;3534;49.960;8.018;2023-06-10T03:09:48;10.10;;;7.90;;
6987;SDS011;3534;49.960;8.018;2023-06-10T03:12:14;10.17;;;8.07;;
6987;SDS011;3534;49.960;8.018;2023-06-10T03:14:41;16.07;;;10.97;;
6987;SDS011;3534;49.960;8.018;2023-06-10T03:17:08;9.80;;;8.60;;
6987;SDS011;3534;49.960;8.018;2023-06-10T03:19:36;14.53;;;8.73;;
6987;SDS011;3534;49.960;8.018;2023-06-10T03:22:07;10.13;;;7.83;;
6987;SDS011;3534;49.960;8.018;2023-06-10T03:24:35;11.23;;;9.10;;
6987;SDS011;3534;49.960;8.018;2023-06-10T03:27:05;12.27;;;7.97;;
6987;SDS011;3534;49.960;8.018;2023-06-10T03:29:32;9.53;;;8.13;;
6987;SDS011;3534;49.960;8.018;2023-06-10T03:31:59;14.30;;;9.20;;
6987;SDS011;3534;49.960;8.018;2023-06-10T03:34:25;12.30;;;8.60;;
6987;SDS011;3534;49.960;8.018;2023-06-10T03:36:53;12.83;;;8.77;;
6987;SDS011;3534;49.960;8.018;2023-06-10T03:39:20;10.10;;;8.43;;
6987;SDS011;3534;49.960;8.018;2023-06-10T03:41:48;11.73;;;8.83;;
6987;SDS011;3534;49.960;8.018;2023-06-10T03:44:14;10.27;;;8.97;;
6987;SDS011;3534;49.960;8.018;2023-06-10T03:46:41;10.73;;;8.50;;
6987;SDS011;3534;49.960;8.018;2023-06-10T03:49:08;11.30;;;8.47;;
6987;SDS011;3534;49.960;8.018;2023-06-10T03:51:35;10.27;;;9.23;;
6987;SDS011;3534;49.960;8.018;2023-06-10T03:54:03;9.90;;;8.30;;
6987;SDS011;3534;49.960;8.018;2023-06-10T03:56:30;10.23;;;7.83;;
6987;SDS011;3534;49.960;8.018;2023-06-10T03:58:57;9.67;;;7.30;;
6987;SDS011;3534;49.960;8.018;2023-06-10T04:01:24;9.83;;;8.83;;
6987;SDS011;3534;49.960;8.018;2023-06-10T04:03:51;12.67;;;8.90;;
6987;SDS011;3534;49.960;8.018;2023-06-10T04:06:19;10.17;;;8.40;;
6987;SDS011;3534;49.960;8.018;2023-06-10T04:08:47;12.00;;;7.80;;
6987;SDS011;3534;49.960;8.018;2023-06-10T04:11:15;10.13;;;7.43;;
6987;SDS011;3534;49.960;8.018;2023-06-10T04:13:42;9.07;;;8.17;;
6987;SDS011;3534;49.960;8.018;2023-06-10T04:16:09;10.80;;;8.50;;
6987;SDS011;3534;49.960;8.018;2023-06-10T04:18:35;9.50;;;7.10;;
6987;SDS011;3534;49.960;8.018;2023-06-10T04:21:02;11.63;;;8.60;;
6987;SDS011;3534;49.960;8.018;2023-06-10T04:23:29;10.90;;;8.33;;
6987;SDS011;3534;49.960;8.018;2023-06-10T04:25:55;8.87;;;7.63;;
6987;SDS011;3534;49.960;8.018;2023-06-10T04:28:23;11.00;;;7.97;;
6987;SDS011;3534;49.960;8.018;2023-06-10T04:30:50;10.13;;;7.77;;
6987;SDS011;3534;49.960;8.018;2023-06-10T04:33:16;13.40;;;7.53;;
6987;SDS011;3534;49.960;8.018;2023-06-10T04:35:43;7.97;;;7.17;;
6987;SDS011;3534;49.960;8.018;2023-06-10T04:38:12;8.37;;;7.30;;
6987;SDS011;3534;49.960;8.018;2023-06-10T04:40:39;8.53;;;7.00;;
6987;SDS011;3534;49.960;8.018;2023-06-10T04:43:06;12.87;;;7.57;;
6987;SDS011;3534;49.960;8.018;2023-06-10T04:45:34;10.20;;;7.40;;
6987;SDS011;3534;49.960;8.018;2023-06-10T04:48:00;15.33;;;8.40;;
6987;SDS011;3534;49.960;8.018;2023-06-10T04:50:28;9.13;;;6.80;;
6987;SDS011;3534;49.960;8.018;2023-06-10T04:52:54;8.97;;;7.70;;
6987;SDS011;3534;49.960;8.018;2023-06-10T04:55:22;9.70;;;7.67;;
6987;SDS011;3534;49.960;8.018;2023-06-10T04:57:48;10.23;;;7.47;;
6987;SDS011;3534;49.960;8.018;2023-06-10T05:00:15;8.50;;;7.70;;
6987;SDS011;3534;49.960;8.018;2023-06-10T05:02:44;7.60;;;6.50;;
6987;SDS011;3534;49.960;8.018;2023-06-10T05:05:14;10.47;;;7.07;;
6987;SDS011;3534;49.960;8.018;2023-06-10T05:07:41;10.73;;;7.73;;
6987;SDS011;3534;49.960;8.018;2023-06-10T05:10:08;10.07;;;7.63;;
6987;SDS011;3534;49.960;8.018;2023-06-10T05:12:37;10.37;;;7.80;;
6987;SDS011;3534;49.960;8.018;2023-06-10T05:15:04;10.83;;;8.27;;
6987;SDS011;3534;49.960;8.018;2023-06-10T05:17:31;8.23;;;7.30;;
6987;SDS011;3534;49.960;8.018;2023-06-10T05:20:01;8.47;;;7.57;;
6987;SDS011;3534;49.960;8.018;2023-06-10T05:22:27;10.20;;;8.50;;
6987;SDS011;3534;49.960;8.018;2023-06-10T05:24:54;10.37;;;8.00;;
6987;SDS011;3534;49.960;8.018;2023-06-10T05:27:21;12.60;;;7.50;;
6987;SDS011;3534;49.960;8.018;2023-06-10T05:29:49;11.53;;;8.80;;
6987;SDS011;3534;49.960;8.018;2023-06-10T05:32:16;10.53;;;8.63;;
6987;SDS011;3534;49.960;8.018;2023-06-10T05:34:43;11.20;;;7.73;;
6987;SDS011;3534;49.960;8.018;2023-06-10T05:37:12;8.53;;;7.63;;
6987;SDS011;3534;49.960;8.018;2023-06-10T05:39:38;9.53;;;7.60;;
6987;SDS011;3534;49.960;8.018;2023-06-10T05:42:06;9.57;;;8.03;;
6987;SDS011;3534;49.960;8.018;2023-06-10T05:44:33;9.07;;;8.17;;
6987;SDS011;3534;49.960;8.018;2023-06-10T05:47:00;7.60;;;6.83;;
6987;SDS011;3534;49.960;8.018;2023-06-10T05:49:27;8.67;;;7.33;;
6987;SDS011;3534;49.960;8.018;2023-06-10T05:51:53;13.13;;;8.33;;
6987;SDS011;3534;49.960;8.018;2023-06-10T05:54:22;10.37;;;8.33;;
6987;SDS011;3534;49.960;8.018;2023-06-10T05:56:49;11.07;;;7.13;;
6987;SDS011;3534;49.960;8.018;2023-06-10T05:59:15;11.27;;;8.00;;
6987;SDS011;3534;49.960;8.018;2023-06-10T06:01:42;10.70;;;8.10;;
6987;SDS011;3534;49.960;8.018;2023-06-10T06:04:09;10.93;;;7.63;;
6987;SDS011;3534;49.960;8.018;2023-06-10T06:06:38;8.30;;;7.50;;
6987;SDS011;3534;49.960;8.018;2023-06-10T06:09:05;9.73;;;7.43;;
6987;SDS011;3534;49.960;8.018;2023-06-10T06:11:33;8.30;;;6.87;;
6987;SDS011;3534;49.960;8.018;2023-06-10T06:14:00;11.40;;;7.00;;
6987;SDS011;3534;49.960;8.018;2023-06-10T06:16:26;7.13;;;6.43;;
6987;SDS011;3534;49.960;8.018;2023-06-10T06:18:53;9.70;;;7.13;;
6987;SDS011;3534;49.960;8.018;2023-06-10T06:21:19;10.67;;;7.50;;
6987;SDS011;3534;49.960;8.018;2023-06-10T06:23:46;7.17;;;6.47;;
6987;SDS011;3534;49.960;8.018;2023-06-10T06:26:13;9.60;;;7.03;;
6987;SDS011;3534;49.960;8.018;2023-06-10T06:28:41;10.07;;;6.57;;
6987;SDS011;3534;49.960;8.018;2023-06-10T06:31:07;6.70;;;6.00;;
6987;SDS011;3534;49.960;8.018;2023-06-10T06:33:34;6.90;;;6.20;;
6987;SDS011;3534;49.960;8.018;2023-06-10T06:36:00;6.80;;;6.10;;
6987;SDS011;3534;49.960;8.018;2023-06-10T06:38:27;8.50;;;6.30;;
6987;SDS011;3534;49.960;8.018;2023-06-10T06:40:54;9.30;;;6.43;;
6987;SDS011;3534;49.960;8.018;2023-06-10T06:43:20;6.77;;;6.07;;
6987;SDS011;3534;49.960;8.018;2023-06-10T06:45:48;8.90;;;7.40;;
6987;SDS011;3534;49.960;8.018;2023-06-10T06:48:15;8.60;;;6.90;;
6987;SDS011;3534;49.960;8.018;2023-06-10T06:50:42;9.63;;;7.10;;
6987;SDS011;3534;49.960;8.018;2023-06-10T06:53:08;6.43;;;5.83;;
6987;SDS011;3534;49.960;8.018;2023-06-10T06:55:35;9.20;;;6.23;;
6987;SDS011;3534;49.960;8.018;2023-06-10T06:58:01;9.43;;;6.70;;
6987;SDS011;3534;49.960;8.018;2023-06-10T07:00:29;9.60;;;5.67;;
6987;SDS011;3534;49.960;8.018;2023-06-10T07:02:57;8.07;;;5.93;;
6987;SDS011;3534;49.960;8.018;2023-06-10T07:05:24;6.70;;;5.63;;
6987;SDS011;3534;49.960;8.018;2023-06-10T07:07:52;8.03;;;6.53;;
6987;SDS011;3534;49.960;8.018;2023-06-10T07:10:20;15.00;;;6.60;;
6987;SDS011;3534;49.960;8.018;2023-06-10T07:12:47;9.50;;;5.83;;
6987;SDS011;3534;49.960;8.018;2023-06-10T07:15:14;10.17;;;6.00;;
6987;SDS011;3534;49.960;8.018;2023-06-10T07:17:40;7.43;;;5.73;;
6987;SDS011;3534;49.960;8.018;2023-06-10T07:20:09;6.67;;;5.77;;
6987;SDS011;3534;49.960;8.018;2023-06-10T07:22:36;10.23;;;6.03;;
6987;SDS011;3534;49.960;8.018;2023-06-10T07:25:04;8.17;;;6.67;;
6987;SDS011;3534;49.960;8.018;2023-06-10T07:27:31;10.40;;;5.87;;
6987;SDS011;3534;49.960;8.018;2023-06-10T07:29:57;10.00;;;6.10;;
6987;SDS011;3534;49.960;8.018;2023-06-10T07:32:25;10.90;;;6.00;;
6987;SDS011;3534;49.960;8.018;2023-06-10T07:35:00;12.63;;;7.17;;
6987;SDS011;3534;49.960;8.018;2023-06-10T07:37:27;10.13;;;6.40;;
6987;SDS011;3534;49.960;8.018;2023-06-10T07:39:53;7.47;;;6.20;;
6987;SDS011;3534;49.960;8.018;2023-06-10T07:42:21;10.20;;;6.73;;
6987;SDS011;3534;49.960;8.018;2023-06-10T07:44:47;8.97;;;6.60;;
6987;SDS011;3534;49.960;8.018;2023-06-10T07:47:14;9.83;;;6.60;;
6987;SDS011;3534;49.960;8.018;2023-06-10T07:49:40;7.27;;;6.10;;
6987;SDS011;3534;49.960;8.018;2023-06-10T07:52:09;7.90;;;6.00;;
6987;SDS011;3534;49.960;8.018;2023-06-10T07:54:35;9.03;;;6.70;;
6987;SDS011;3534;49.960;8.018;2023-06-10T07:57:02;9.10;;;6.40;;
6987;SDS011;3534;49.960;8.018;2023-06-10T07:59:29;7.60;;;6.50;;
6987;SDS011;3534;49.960;8.018;2023-06-10T08:01:56;8.90;;;6.87;;
6987;SDS011;3534;49.960;8.018;2023-06-10T08:04:22;7.73;;;6.73;;
6987;SDS011;3534;49.960;8.018;2023-06-10T08:06:49;7.90;;;6.03;;
6987;SDS011;3534;49.960;8.018;2023-06-10T08:09:17;7.43;;;6.50;;
6987;SDS011;3534;49.960;8.018;2023-06-10T08:11:46;18.87;;;6.77;;
6987;SDS011;3534;49.960;8.018;2023-06-10T08:14:13;19.30;;;7.43;;
6987;SDS011;3534;49.960;8.018;2023-06-10T08:16:39;11.80;;;6.90;;
6987;SDS011;3534;49.960;8.018;2023-06-10T08:19:07;7.77;;;6.10;;
6987;SDS011;3534;49.960;8.018;2023-06-10T08:21:34;11.93;;;6.53;;
6987;SDS011;3534;49.960;8.018;2023-06-10T08:24:02;7.80;;;5.97;;
6987;SDS011;3534;49.960;8.018;2023-06-10T08:26:30;7.47;;;5.93;;
6987;SDS011;3534;49.960;8.018;2023-06-10T08:28:56;8.53;;;6.07;;
6987;SDS011;3534;49.960;8.018;2023-06-10T08:31:23;16.17;;;6.33;;
6987;SDS011;3534;49.960;8.018;2023-06-10T08:33:49;8.40;;;5.97;;
6987;SDS011;3534;49.960;8.018;2023-06-10T08:36:16;8.83;;;6.37;;
6987;SDS011;3534;49.960;8.018;2023-06-10T08:38:43;9.60;;;6.27;;
6987;SDS011;3534;49.960;8.018;2023-06-10T08:41:10;6.93;;;6.23;;
6987;SDS011;3534;49.960;8.018;2023-06-10T08:43:42;8.00;;;6.83;;
6987;SDS011;3534;49.960;8.018;2023-06-10T08:46:11;10.20;;;6.40;;
6987;SDS011;3534;49.960;8.018;2023-06-10T08:48:42;11.43;;;6.57;;
6987;SDS011;3534;49.960;8.018;2023-06-10T08:51:10;9.63;;;6.77;;
6987;SDS011;3534;49.960;8.018;2023-06-10T08:53:37;8.37;;;6.77;;
6987;SDS011;3534;49.960;8.018;2023-06-10T08:56:08;11.10;;;6.97;;
6987;SDS011;3534;49.960;8.018;2023-06-10T08:58:36;8.80;;;7.13;;
6987;SDS011;3534;49.960;8.018;2023-06-10T09:01:08;10.30;;;6.80;;
6987;SDS011;3534;49.960;8.018;2023-06-10T09:03:36;6.70;;;6.07;;
6987;SDS011;3534;49.960;8.018;2023-06-10T09:06:04;6.23;;;5.63;;
6987;SDS011;3534;49.960;8.018;2023-06-10T09:08:33;8.23;;;6.80;;
6987;SDS011;3534;49.960;8.018;2023-06-10T09:11:00;8.30;;;6.50;;
6987;SDS011;3534;49.960;8.018;2023-06-10T09:13:27;7.20;;;6.40;;
6987;SDS011;3534;49.960;8.018;2023-06-10T09:15:54;16.43;;;7.40;;
6987;SDS011;3534;49.960;8.018;2023-06-10T09:18:22;14.23;;;7.47;;
6987;SDS011;3534;49.960;8.018;2023-06-10T09:20:49;10.13;;;6.80;;
6987;SDS011;3534;49.960;8.018;2023-06-10T09:23:16;12.60;;;6.77;;
6987;SDS011;3534;49.960;8.018;2023-06-10T09:25:43;8.93;;;6.43;;
6987;SDS011;3534;49.960;8.018;2023-06-10T09:28:12;9.60;;;6.60;;
6987;SDS011;3534;49.960;8.018;2023-06-10T09:30:39;11.60;;;6.40;;
6987;SDS011;3534;49.960;8.018;2023-06-10T09:33:09;9.53;;;5.50;;
6987;SDS011;3534;49.960;8.018;2023-06-10T09:35:45;7.73;;;6.23;;
6987;SDS011;3534;49.960;8.018;2023-06-10T09:38:12;9.13;;;5.97;;
6987;SDS011;3534;49.960;8.018;2023-06-10T09:40:48;7.13;;;5.47;;
6987;SDS011;3534;49.960;8.018;2023-06-10T09:43:15;18.83;;;5.90;;
6987;SDS011;3534;49.960;8.018;2023-06-10T09:45:41;11.60;;;6.80;;
6987;SDS011;3534;49.960;8.018;2023-06-10T09:48:09;14.13;;;6.37;;
6987;SDS011;3534;49.960;8.018;2023-06-10T09:50:42;8.60;;;6.50;;
6987;SDS011;3534;49.960;8.018;2023-06-10T09:53:09;7.10;;;6.40;;
6987;SDS011;3534;49.960;8.018;2023-06-10T09:55:37;12.10;;;5.73;;
6987;SDS011;3534;49.960;8.018;2023-06-10T09:58:04;7.30;;;6.53;;
6987;SDS011;3534;49.960;8.018;2023-06-10T10:00:32;6.80;;;5.90;;
6987;SDS011;3534;49.960;8.018;2023-06-10T10:02:59;14.20;;;6.00;;
6987;SDS011;3534;49.960;8.018;2023-06-10T10:05:26;6.13;;;5.53;;
6987;SDS011;3534;49.960;8.018;2023-06-10T10:07:56;5.93;;;5.33;;
6987;SDS011;3534;49.960;8.018;2023-06-10T10:10:22;8.20;;;6.13;;
6987;SDS011;3534;49.960;8.018;2023-06-10T10:12:50;8.43;;;5.70;;
6987;SDS011;3534;49.960;8.018;2023-06-10T10:15:21;6.40;;;5.63;;
6987;SDS011;3534;49.960;8.018;2023-06-10T10:17:49;10.17;;;6.10;;
6987;SDS011;3534;49.960;8.018;2023-06-10T10:20:20;8.80;;;6.30;;
6987;SDS011;3534;49.960;8.018;2023-06-10T10:22:51;8.43;;;6.20;;
6987;SDS011;3534;49.960;8.018;2023-06-10T10:25:24;10.73;;;5.93;;
6987;SDS011;3534;49.960;8.018;2023-06-10T10:27:54;6.33;;;5.77;;
6987;SDS011;3534;49.960;8.018;2023-06-10T10:30:24;10.50;;;6.30;;
6987;SDS011;3534;49.960;8.018;2023-06-10T10:32:55;7.53;;;6.10;;
6987;SDS011;3534;49.960;8.018;2023-06-10T10:35:24;7.87;;;5.63;;
6987;SDS011;3534;49.960;8.018;2023-06-10T10:37:51;6.17;;;5.67;;
6987;SDS011;3534;49.960;8.018;2023-06-10T10:40:19;5.90;;;5.40;;
6987;SDS011;3534;49.960;8.018;2023-06-10T10:42:48;6.67;;;5.73;;
6987;SDS011;3534;49.960;8.018;2023-06-10T10:45:16;10.00;;;5.70;;
6987;SDS011;3534;49.960;8.018;2023-06-10T10:47:43;7.97;;;6.30;;
6987;SDS011;3534;49.960;8.018;2023-06-10T10:50:14;7.13;;;5.50;;
6987;SDS011;3534;49.960;8.018;2023-06-10T10:52:53;7.63;;;5.53;;
6987;SDS011;3534;49.960;8.018;2023-06-10T10:55:22;8.97;;;5.50;;
6987;SDS011;3534;49.960;8.018;2023-06-10T10:57:57;13.03;;;6.43;;
6987;SDS011;3534;49.960;8.018;2023-06-10T11:00:28;7.37;;;6.60;;
6987;SDS011;3534;49.960;8.018;2023-06-10T11:02:59;8.83;;;6.07;;
6987;SDS011;3534;49.960;8.018;2023-06-10T11:05:31;6.40;;;5.77;;
6987;SDS011;3534;49.960;8.018;2023-06-10T11:12:59;10.47;;;5.97;;
6987;SDS011;3534;49.960;8.018;2023-06-10T11:15:27;6.47;;;5.50;;
6987;SDS011;3534;49.960;8.018;2023-06-10T11:18:11;7.07;;;5.90;;
6987;SDS011;3534;49.960;8.018;2023-06-10T11:20:52;6.27;;;5.20;;
6987;SDS011;3534;49.960;8.018;2023-06-10T11:23:30;9.90;;;6.30;;
6987;SDS011;3534;49.960;8.018;2023-06-10T11:26:10;9.43;;;5.03;;
6987;SDS011;3534;49.960;8.018;2023-06-10T11:31:29;8.03;;;5.70;;
6987;SDS011;3534;49.960;8.018;2023-06-10T11:33:57;6.90;;;5.93;;
6987;SDS011;3534;49.960;8.018;2023-06-10T11:36:26;7.10;;;6.17;;
6987;SDS011;3534;49.960;8.018;2023-06-10T11:38:55;6.27;;;5.43;;
6987;SDS011;3534;49.960;8.018;2023-06-10T11:41:23;8.33;;;6.10;;
6987;SDS011;3534;49.960;8.018;2023-06-10T11:43:51;10.53;;;5.80;;
6987;SDS011;3534;49.960;8.018;2023-06-10T11:46:20;8.27;;;5.83;;
6987;SDS011;3534;49.960;8.018;2023-06-10T11:48:51;9.23;;;6.73;;
6987;SDS011;3534;49.960;8.018;2023-06-10T11:51:18;9.03;;;6.20;;
6987;SDS011;3534;49.960;8.018;2023-06-10T11:53:45;16.13;;;6.60;;
6987;SDS011;3534;49.960;8.018;2023-06-10T11:56:12;7.13;;;5.60;;
6987;SDS011;3534;49.960;8.018;2023-06-10T11:58:39;10.33;;;5.60;;
6987;SDS011;3534;49.960;8.018;2023-06-10T12:01:11;7.57;;;5.30;;
6987;SDS011;3534;49.960;8.018;2023-06-10T12:03:46;6.50;;;5.87;;
6987;SDS011;3534;49.960;8.018;2023-06-10T12:06:13;9.23;;;5.10;;
6987;SDS011;3534;49.960;8.018;2023-06-10T12:08:41;6.60;;;6.00;;
6987;SDS011;3534;49.960;8.018;2023-06-10T12:11:08;7.00;;;5.40;;
6987;SDS011;3534;49.960;8.018;2023-06-10T12:13:35;6.63;;;5.20;;
6987;SDS011;3534;49.960;8.018;2023-06-10T12:16:08;9.73;;;5.63;;
6987;SDS011;3534;49.960;8.018;2023-06-10T12:18:35;7.63;;;5.33;;
6987;SDS011;3534;49.960;8.018;2023-06-10T12:21:03;9.27;;;6.10;;
6987;SDS011;3534;49.960;8.018;2023-06-10T12:26:34;5.47;;;4.97;;
6987;SDS011;3534;49.960;8.018;2023-06-10T12:29:18;7.40;;;5.97;;
6987;SDS011;3534;49.960;8.018;2023-06-10T12:31:55;6.50;;;5.60;;
6987;SDS011;3534;49.960;8.018;2023-06-10T12:34:30;7.10;;;5.33;;
6987;SDS011;3534;49.960;8.018;2023-06-10T12:36:59;7.77;;;5.30;;
6987;SDS011;3534;49.960;8.018;2023-06-10T12:39:29;10.23;;;5.13;;
6987;SDS011;3534;49.960;8.018;2023-06-10T12:41:56;5.23;;;4.83;;
6987;SDS011;3534;49.960;8.018;2023-06-10T12:44:30;7.72;;;5.47;;
6987;SDS011;3534;49.960;8.018;2023-06-10T12:46:57;6.60;;;5.35;;
6987;SDS011;3534;49.960;8.018;2023-06-10T12:49:24;7.15;;;5.10;;
6987;SDS011;3534;49.960;8.018;2023-06-10T12:51:51;5.72;;;5.07;;
6987;SDS011;3534;49.960;8.018;2023-06-10T12:54:19;6.30;;;5.10;;
6987;SDS011;3534;49.960;8.018;2023-06-10T12:56:46;11.63;;;5.20;;
6987;SDS011;3534;49.960;8.018;2023-06-10T12:59:12;5.22;;;4.75;;
6987;SDS011;3534;49.960;8.018;2023-06-10T13:01:39;7.57;;;4.82;;
6987;SDS011;3534;49.960;8.018;2023-06-10T13:04:06;5.78;;;5.18;;
6987;SDS011;3534;49.960;8.018;2023-06-10T13:06:33;5.18;;;4.68;;
6987;SDS011;3534;49.960;8.018;2023-06-10T13:09:02;4.95;;;4.40;;
6987;SDS011;3534;49.960;8.018;2023-06-10T13:11:32;5.85;;;4.15;;
6987;SDS011;3534;49.960;8.018;2023-06-10T13:13:58;6.53;;;5.40;;
6987;SDS011;3534;49.960;8.018;2023-06-10T13:16:25;7.78;;;4.82;;
6987;SDS011;3534;49.960;8.018;2023-06-10T13:18:52;6.75;;;4.45;;
6987;SDS011;3534;49.960;8.018;2023-06-10T13:21:19;5.45;;;4.93;;
6987;SDS011;3534;49.960;8.018;2023-06-10T13:23:46;4.85;;;4.45;;
6987;SDS011;3534;49.960;8.018;2023-06-10T13:26:13;4.63;;;4.22;;
6987;SDS011;3534;49.960;8.018;2023-06-10T13:28:42;6.97;;;4.45;;
6987;SDS011;3534;49.960;8.018;2023-06-10T13:31:09;4.50;;;4.10;;
6987;SDS011;3534;49.960;8.018;2023-06-10T13:33:36;4.32;;;3.92;;
6987;SDS011;3534;49.960;8.018;2023-06-10T13:36:03;5.07;;;4.15;;
6987;SDS011;3534;49.960;8.018;2023-06-10T13:38:30;5.18;;;4.20;;
6987;SDS011;3534;49.960;8.018;2023-06-10T13:40:57;4.22;;;3.83;;
6987;SDS011;3534;49.960;8.018;2023-06-10T13:43:24;4.93;;;4.53;;
6987;SDS011;3534;49.960;8.018;2023-06-10T13:45:51;7.55;;;4.70;;
6987;SDS011;3534;49.960;8.018;2023-06-10T13:48:18;7.20;;;4.00;;
6987;SDS011;3534;49.960;8.018;2023-06-10T13:50:45;6.75;;;4.80;;
6987;SDS011;3534;49.960;8.018;2023-06-10T13:53:11;4.93;;;4.45;;
6987;SDS011;3534;49.960;8.018;2023-06-10T13:55:38;4.72;;;4.32;;
6987;SDS011;3534;49.960;8.018;2023-06-10T13:58:05;4.07;;;3.65;;
6987;SDS011;3534;49.960;8.018;2023-06-10T14:00:31;4.03;;;3.72;;
6987;SDS011;3534;49.960;8.018;2023-06-10T14:02:59;6.25;;;4.38;;
6987;SDS011;3534;49.960;8.018;2023-06-10T14:05:26;5.00;;;4.47;;
6987;SDS011;3534;49.960;8.018;2023-06-10T14:07:53;4.70;;;4.28;;
6987;SDS011;3534;49.960;8.018;2023-06-10T14:10:21;5.53;;;4.38;;
6987;SDS011;3534;49.960;8.018;2023-06-10T14:12:47;13.32;;;4.30;;
6987;SDS011;3534;49.960;8.018;2023-06-10T14:15:14;3.72;;;3.42;;
6987;SDS011;3534;49.960;8.018;2023-06-10T14:17:41;4.97;;;4.43;;
6987;SDS011;3534;49.960;8.018;2023-06-10T14:20:10;4.68;;;4.20;;
6987;SDS011;3534;49.960;8.018;2023-06-10T14:22:37;7.72;;;4.38;;
6987;SDS011;3534;49.960;8.018;2023-06-10T14:25:04;4.68;;;4.18;;
6987;SDS011;3534;49.960;8.018;2023-06-10T14:27:32;4.10;;;3.80;;
6987;SDS011;3534;49.960;8.018;2023-06-10T14:29:58;8.60;;;4.20;;
6987;SDS011;3534;49.960;8.018;2023-06-10T14:32:25;5.03;;;3.72;;
6987;SDS011;3534;49.960;8.018;2023-06-10T14:34:52;5.63;;;4.03;;
6987;SDS011;3534;49.960;8.018;2023-06-10T14:37:20;7.70;;;4.22;;
6987;SDS011;3534;49.960;8.018;2023-06-10T14:39:47;4.38;;;3.67;;
6987;SDS011;3534;49.960;8.018;2023-06-10T14:42:13;4.57;;;3.85;;
6987;SDS011;3534;49.960;8.018;2023-06-10T14:44:40;7.13;;;4.38;;
6987;SDS011;3534;49.960;8.018;2023-06-10T14:47:06;7.38;;;4.60;;
6987;SDS011;3534;49.960;8.018;2023-06-10T14:49:33;8.40;;;4.03;;
6987;SDS011;3534;49.960;8.018;2023-06-10T14:52:00;7.20;;;4.18;;
6987;SDS011;3534;49.960;8.018;2023-06-10T14:54:28;6.82;;;5.38;;
6987;SDS011;3534;49.960;8.018;2023-06-10T14:56:55;5.10;;;4.70;;
6987;SDS011;3534;49.960;8.018;2023-06-10T14:59:21;6.60;;;3.97;;
6987;SDS011;3534;49.960;8.018;2023-06-10T15:01:48;11.23;;;3.58;;
6987;SDS011;3534;49.960;8.018;2023-06-10T15:04:15;11.00;;;4.63;;
6987;SDS011;3534;49.960;8.018;2023-06-10T15:06:41;5.47;;;4.35;;
6987;SDS011;3534;49.960;8.018;2023-06-10T15:09:08;3.70;;;3.40;;
6987;SDS011;3534;49.960;8.018;2023-06-10T15:11:36;4.55;;;3.90;;
6987;SDS011;3534;49.960;8.018;2023-06-10T15:14:03;8.40;;;4.65;;
6987;SDS011;3534;49.960;8.018;2023-06-10T15:16:30;5.95;;;4.25;;
6987;SDS011;3534;49.960;8.018;2023-06-10T15:18:57;6.60;;;4.70;;
6987;SDS011;3534;49.960;8.018;2023-06-10T15:21:23;4.75;;;4.35;;
6987;SDS011;3534;49.960;8.018;2023-06-10T15:23:50;4.25;;;3.85;;
6987;SDS011;3534;49.960;8.018;2023-06-10T15:26:17;6.65;;;3.97;;